Time;durP1;ratioP1;P1;durP2;ratioP2;P2;SDS_P1;SDS_P2;PMS_P1;PMS_P2;Temp;Humidity;BMP_temperature;BMP_pressure;BME280_temperature;BME280_humidity;BME280_pressure;Samples;Min_cycle;Max_cycle;Signal;HPM_P1;HPM_P2
2022/10/02 00:02:23;;;;;;;14.70;1.77;;;12.90;99.90;;;;;;5078709;28;20369;-81
2022/10/02 00:05:09;;;;;;;8.18;1.50;;;12.90;99.90;;;;;;5064906;28;20505;-81
2022/10/02 00:07:47;;;;;;;10.60;1.15;;;12.90;99.90;;;;;;5078126;28;20027;-80
2022/10/02 00:10:29;;;;;;;11.70;1.42;;;12.90;99.90;;;;;;5081681;28;20044;-81
2022/10/02 00:13:00;;;;;;;13.75;2.13;;;12.90;99.90;;;;;;5085600;28;20569;-81
2022/10/02 00:15:29;;;;;;;15.32;1.45;;;12.90;99.90;;;;;;5067036;28;20049;-81
2022/10/02 00:18:01;;;;;;;11.32;1.88;;;12.90;99.90;;;;;;5097536;28;20165;-80
2022/10/02 00:20:37;;;;;;;9.50;1.17;;;12.90;99.90;;;;;;5098635;28;20035;-81
2022/10/02 00:23:29;;;;;;;8.60;0.90;;;12.80;99.90;;;;;;5081453;28;20043;-80
2022/10/02 00:26:02;;;;;;;7.25;0.70;;;12.80;99.90;;;;;;5081618;28;20505;-81
2022/10/02 00:28:37;;;;;;;5.53;0.60;;;12.70;99.90;;;;;;5067366;28;20519;-80
2022/10/02 00:31:18;;;;;;;4.07;0.80;;;12.70;99.90;;;;;;5081661;28;20342;-81
2022/10/02 00:34:06;;;;;;;3.05;0.32;;;12.60;99.90;;;;;;5081107;28;21021;-81
2022/10/02 00:36:41;;;;;;;5.22;0.40;;;12.60;99.90;;;;;;5098763;28;20036;-81
2022/10/02 00:39:26;;;;;;;2.63;0.50;;;12.50;99.90;;;;;;5080385;28;20374;-81
2022/10/02 00:42:09;;;;;;;4.25;0.40;;;12.40;99.90;;;;;;5083660;28;20050;-81
2022/10/02 00:44:54;;;;;;;2.80;0.32;;;12.30;99.90;;;;;;5099050;28;20060;-81
2022/10/02 00:47:52;;;;;;;4.35;0.73;;;12.20;99.90;;;;;;5068749;28;20607;-80
2022/10/02 00:50:39;;;;;;;5.07;0.50;;;12.20;99.90;;;;;;5080861;28;20059;-81
2022/10/02 00:53:33;;;;;;;2.65;0.32;;;12.10;99.90;;;;;;5067490;28;20028;-80
2022/10/02 00:56:23;;;;;;;4.88;0.50;;;12.00;99.90;;;;;;5081550;28;20035;-80
2022/10/02 00:59:06;;;;;;;2.22;0.30;;;12.00;99.90;;;;;;5081080;28;20036;-79
2022/10/02 01:01:41;;;;;;;;;;;11.90;99.90;;;;;;5092993;28;20035;-79
2022/10/02 01:04:14;;;;;;;5.80;0.55;;;11.90;99.90;;;;;;5084401;28;19912;-79
2022/10/02 01:06:41;;;;;;;4.90;0.77;;;11.80;99.90;;;;;;5101090;28;20044;-79
2022/10/02 01:09:07;;;;;;;4.32;0.50;;;11.80;99.90;;;;;;5055718;28;20039;-79
2022/10/02 01:11:36;;;;;;;2.17;0.30;;;11.80;99.90;;;;;;5102298;28;20043;-79
2022/10/02 01:14:03;;;;;;;2.45;0.30;;;11.80;99.90;;;;;;5101529;28;20027;-79
2022/10/02 01:16:31;;;;;;;3.63;0.60;;;11.80;99.90;;;;;;5039373;28;20047;-80
2022/10/02 01:18:57;;;;;;;5.38;0.65;;;11.90;99.90;;;;;;5083966;28;20062;-80
2022/10/02 01:21:56;;;;;;;4.88;1.00;;;11.90;99.90;;;;;;5104139;28;20454;-80
2022/10/02 01:24:47;;;;;;;4.93;0.50;;;12.00;99.90;;;;;;5064961;28;20385;-80
2022/10/02 01:27:14;;;;;;;3.72;0.50;;;12.00;99.90;;;;;;5094504;28;20047;-80
2022/10/02 01:29:43;;;;;;;3.28;0.55;;;11.90;99.90;;;;;;5084430;28;20035;-80
2022/10/02 01:32:09;;;;;;;4.75;0.57;;;11.90;99.90;;;;;;5042366;28;20405;-80
2022/10/02 01:34:36;;;;;;;4.03;0.70;;;11.90;99.90;;;;;;5084251;28;20027;-80
2022/10/02 01:37:03;;;;;;;5.55;1.02;;;11.90;99.90;;;;;;5101575;28;20039;-80
2022/10/02 01:39:30;;;;;;;6.18;0.70;;;11.90;99.90;;;;;;5103233;28;20027;-80
2022/10/02 01:41:56;;;;;;;3.30;0.70;;;11.90;99.90;;;;;;5043772;28;20044;-80
2022/10/02 01:44:23;;;;;;;5.38;0.93;;;12.00;99.90;;;;;;5062572;28;20060;-80
2022/10/02 01:47:11;;;;;;;2.65;0.70;;;12.10;99.90;;;;;;5055848;28;20039;-80
2022/10/02 01:49:59;;;;;;;5.05;0.70;;;12.20;99.90;;;;;;5083475;28;20048;-80
2022/10/02 01:52:31;;;;;;;8.63;1.45;;;12.20;99.90;;;;;;5101824;28;20094;-80
2022/10/02 01:55:10;;;;;;;4.95;0.80;;;12.30;99.90;;;;;;5085721;28;20031;-80
2022/10/02 01:57:36;;;;;;;6.80;1.25;;;12.30;99.90;;;;;;5050698;28;20489;-81
2022/10/02 02:00:09;;;;;;;9.95;1.67;;;12.30;99.90;;;;;;5067913;28;20474;-81
2022/10/02 02:02:58;;;;;;;12.70;3.50;;;12.40;99.90;;;;;;5082948;28;20498;-81
2022/10/02 02:05:28;;;;;;;8.68;2.45;;;12.40;99.90;;;;;;5052531;28;20040;-81
2022/10/02 02:08:10;;;;;;;10.40;3.40;;;12.50;99.90;;;;;;5082743;28;20047;-82
2022/10/02 02:10:58;;;;;;;11.88;3.08;;;12.50;99.90;;;;;;5072847;28;20040;-82
2022/10/02 02:13:31;;;;;;;20.67;7.05;;;12.50;99.90;;;;;;5051645;28;20059;-81
2022/10/02 02:16:08;;;;;;;10.50;3.88;;;12.50;99.90;;;;;;5084697;28;20051;-81
2022/10/02 02:18:44;;;;;;;23.38;6.22;;;12.60;99.90;;;;;;5100222;28;20042;-80
2022/10/02 02:21:21;;;;;;;12.50;5.47;;;12.60;99.90;;;;;;5082845;28;20043;-81
2022/10/02 02:23:48;;;;;;;12.57;4.30;;;12.60;99.90;;;;;;5102566;28;20058;-81
2022/10/02 02:26:18;;;;;;;12.25;4.53;;;12.60;99.90;;;;;;5049596;28;20044;-80
2022/10/02 02:28:53;;;;;;;6.80;3.47;;;12.60;99.90;;;;;;5100343;28;20458;-81
2022/10/02 02:31:27;;;;;;;14.32;5.25;;;12.60;99.90;;;;;;5069205;28;20497;-81
2022/10/02 02:34:00;;;;;;;15.65;5.82;;;12.60;99.90;;;;;;5103203;28;20039;-81
2022/10/02 02:36:34;;;;;;;15.55;6.50;;;12.60;99.90;;;;;;5084261;28;20512;-81
2022/10/02 02:39:06;;;;;;;15.32;6.10;;;12.60;99.90;;;;;;5082516;28;20046;-81
2022/10/02 02:41:40;;;;;;;16.85;7.40;;;12.70;99.90;;;;;;5083714;28;20070;-81
2022/10/02 02:44:19;;;;;;;17.90;7.68;;;12.70;99.90;;;;;;5083164;28;20035;-81
2022/10/02 02:47:05;;;;;;;13.93;5.47;;;12.70;99.90;;;;;;5081169;28;20039;-81
2022/10/02 02:49:49;;;;;;;12.02;5.15;;;12.70;99.90;;;;;;5065608;28;20064;-81
2022/10/02 02:52:37;;;;;;;11.93;4.95;;;12.70;99.90;;;;;;5083002;28;20062;-81
2022/10/02 02:55:09;;;;;;;12.63;5.22;;;12.70;99.90;;;;;;5058475;28;20389;-81
2022/10/02 02:58:03;;;;;;;16.35;5.70;;;12.60;99.90;;;;;;5080076;28;20421;-81
2022/10/02 03:00:29;;;;;;;10.80;4.40;;;12.60;99.90;;;;;;5055858;28;20066;-81
2022/10/02 03:02:56;;;;;;;11.65;4.30;;;12.60;99.90;;;;;;5083078;28;20528;-81
2022/10/02 03:05:26;;;;;;;11.43;5.00;;;12.50;99.90;;;;;;5084504;28;20046;-81
2022/10/02 03:07:55;;;;;;;22.05;6.80;;;12.50;99.90;;;;;;5100460;28;20047;-82
2022/10/02 03:10:35;;;;;;;13.45;4.78;;;12.40;99.90;;;;;;5053612;28;20497;-82
2022/10/02 03:13:19;;;;;;;8.93;3.78;;;12.40;99.90;;;;;;5102190;28;20039;-80
2022/10/02 03:15:57;;;;;;;18.45;4.78;;;12.40;99.90;;;;;;5066205;28;20043;-81
2022/10/02 03:18:38;;;;;;;11.68;4.85;;;12.30;99.90;;;;;;5037296;28;20035;-80
2022/10/02 03:21:14;;;;;;;11.38;4.80;;;12.30;99.90;;;;;;5083054;28;20373;-80
2022/10/02 03:24:16;;;;;;;11.77;3.90;;;12.30;99.90;;;;;;5082653;28;20039;-80
2022/10/02 03:26:54;;;;;;;16.02;5.03;;;12.30;99.90;;;;;;5099002;28;20047;-80
2022/10/02 03:29:48;;;;;;;12.30;3.67;;;12.30;99.90;;;;;;5082235;28;20054;-80
2022/10/02 03:32:16;;;;;;;12.93;3.40;;;12.20;99.90;;;;;;5061354;28;20044;-80
2022/10/02 03:34:43;;;;;;;11.18;3.60;;;12.20;99.90;;;;;;5065435;28;20036;-80
2022/10/02 03:37:10;;;;;;;8.18;3.35;;;12.10;99.90;;;;;;5080732;28;20372;-81
2022/10/02 03:39:42;;;;;;;12.05;2.75;;;12.10;99.90;;;;;;5081944;28;20042;-81
2022/10/02 03:42:11;;;;;;;10.25;3.20;;;12.10;99.90;;;;;;5098556;27;20023;-81
2022/10/02 03:44:37;;;;;;;13.52;3.20;;;12.00;99.90;;;;;;5080977;28;20506;-81
2022/10/02 03:47:03;;;;;;;10.45;2.40;;;12.10;99.90;;;;;;5095461;28;20043;-81
2022/10/02 03:49:30;;;;;;;9.82;2.88;;;12.10;99.90;;;;;;5100320;28;20028;-80
2022/10/02 03:51:56;;;;;;;15.13;3.88;;;12.10;99.90;;;;;;5047367;28;20035;-80
2022/10/02 03:54:23;;;;;;;15.30;2.92;;;12.20;99.90;;;;;;5082208;28;21242;-82
2022/10/02 03:56:55;;;;;;;11.30;2.50;;;12.20;99.90;;;;;;5079624;28;20470;-81
2022/10/02 04:00:04;;;;;;;13.52;2.63;;;12.20;99.90;;;;;;5084371;28;20398;-82
2022/10/02 04:02:54;;;;;;;10.60;1.65;;;12.20;99.90;;;;;;5061513;28;20047;-82
2022/10/02 04:05:51;;;;;;;10.23;2.25;;;12.30;99.90;;;;;;5070290;28;20050;-81
2022/10/02 04:08:26;;;;;;;17.73;3.97;;;12.30;99.90;;;;;;5068557;28;20051;-81
2022/10/02 04:11:00;;;;;;;14.82;3.10;;;12.30;99.90;;;;;;5100109;28;20050;-82
2022/10/02 04:13:38;;;;;;;12.45;2.72;;;12.30;99.90;;;;;;5081826;28;20046;-81
2022/10/02 04:16:12;;;;;;;10.80;1.98;;;12.30;99.90;;;;;;5098470;28;20028;-81
2022/10/02 04:18:52;;;;;;;17.45;2.13;;;12.30;99.90;;;;;;5095630;28;20051;-81
2022/10/02 04:21:43;;;;;;;16.88;2.55;;;12.30;99.90;;;;;;5081819;28;20055;-82
2022/10/02 04:24:25;;;;;;;12.70;1.90;;;12.30;99.90;;;;;;5080494;28;20367;-81
2022/10/02 04:26:55;;;;;;;10.77;1.60;;;12.30;99.90;;;;;;5098425;28;20043;-82
2022/10/02 04:29:25;;;;;;;16.52;2.58;;;12.30;99.90;;;;;;5067100;28;20070;-82
2022/10/02 04:31:58;;;;;;;17.58;3.13;;;12.30;99.90;;;;;;5099907;28;20693;-82
2022/10/02 04:34:26;;;;;;;17.38;2.38;;;12.30;99.90;;;;;;5064892;28;20500;-81
2022/10/02 04:37:01;;;;;;;13.35;3.08;;;12.30;99.90;;;;;;5047868;28;20107;-82
2022/10/02 04:39:30;;;;;;;10.95;1.88;;;12.30;99.90;;;;;;5064290;28;20055;-82
2022/10/02 04:42:40;;;;;;;8.68;1.73;;;12.30;99.90;;;;;;5081439;28;20055;-82
2022/10/02 04:45:31;;;;;;;17.77;2.13;;;12.20;99.90;;;;;;5017672;28;20068;-82
2022/10/02 04:48:10;;;;;;;15.68;2.53;;;12.20;99.90;;;;;;5076762;28;20058;-82
2022/10/02 04:51:12;;;;;;;23.83;3.85;;;12.20;99.90;;;;;;5100388;28;20035;-81
2022/10/02 04:53:53;;;;;;;11.80;1.83;;;12.10;99.90;;;;;;5079848;28;20039;-82
2022/10/02 04:57:10;;;;;;;14.73;2.08;;;12.10;99.90;;;;;;5099033;28;20054;-81
2022/10/02 04:59:59;;;;;;;18.65;3.22;;;12.10;99.90;;;;;;5012166;28;20034;-82
2022/10/02 05:02:26;;;;;;;20.15;3.13;;;12.10;99.90;;;;;;5014366;28;20515;-82
2022/10/02 05:05:16;;;;;;;8.32;2.08;;;12.10;99.90;;;;;;5067081;28;20050;-81
2022/10/02 05:08:21;;;;;;;13.85;2.47;;;12.10;99.90;;;;;;5076381;28;20487;-81
2022/10/02 05:11:02;;;;;;;14.55;2.70;;;12.10;99.90;;;;;;5079972;28;20474;-81
2022/10/02 05:13:52;;;;;;;13.00;2.00;;;12.10;99.90;;;;;;5098931;28;20101;-81
2022/10/02 05:16:28;;;;;;;11.38;2.85;;;12.10;99.90;;;;;;5079412;28;20056;-81
2022/10/02 05:19:40;;;;;;;17.20;3.05;;;12.10;99.90;;;;;;5061855;28;20039;-81
2022/10/02 05:22:36;;;;;;;11.00;2.30;;;12.10;99.90;;;;;;5080958;28;20019;-81
2022/10/02 05:25:31;;;;;;;12.02;2.25;;;12.20;99.90;;;;;;5098153;28;20023;-81
2022/10/02 05:28:19;;;;;;;10.60;2.42;;;12.20;99.90;;;;;;5094260;28;20473;-82
2022/10/02 05:31:03;;;;;;;8.68;1.98;;;12.20;99.90;;;;;;5097968;28;20470;-81
2022/10/02 05:33:43;;;;;;;14.30;2.83;;;12.30;99.90;;;;;;5079841;28;20039;-81
2022/10/02 05:36:22;;;;;;;13.63;3.75;;;12.30;99.90;;;;;;5065603;28;20032;-82
2022/10/02 05:39:35;;;;;;;15.32;4.53;;;12.30;99.90;;;;;;5075865;28;20385;-81
2022/10/02 05:42:04;;;;;;;24.58;5.30;;;12.30;99.90;;;;;;5097464;28;20034;-81
2022/10/02 05:44:38;;;;;;;24.67;4.68;;;12.30;99.90;;;;;;5063604;28;20047;-81
2022/10/02 05:47:23;;;;;;;19.15;4.45;;;12.20;99.90;;;;;;5079964;28;20043;-80
2022/10/02 05:49:52;;;;;;;19.98;3.88;;;12.30;99.90;;;;;;5081994;28;20039;-81
2022/10/02 05:52:40;;;;;;;17.45;3.70;;;12.30;99.90;;;;;;5066083;28;20043;-80
2022/10/02 05:55:18;;;;;;;12.32;3.83;;;12.30;99.90;;;;;;5032910;28;20024;-80
2022/10/02 05:58:25;;;;;;;23.27;5.30;;;12.30;99.90;;;;;;5078482;28;20031;-81
2022/10/02 06:01:16;;;;;;;29.52;7.18;;;12.30;99.90;;;;;;5087124;28;20048;-81
2022/10/02 06:03:50;;;;;;;12.77;3.70;;;12.40;99.90;;;;;;5044140;27;20054;-81
2022/10/02 06:06:25;;;;;;;17.17;4.40;;;12.40;99.90;;;;;;5100945;28;20381;-81
2022/10/02 06:09:04;;;;;;;17.23;4.43;;;12.40;99.90;;;;;;5097309;28;20602;-81
2022/10/02 06:11:40;;;;;;;16.63;4.13;;;12.50;99.90;;;;;;5099416;28;20059;-81
2022/10/02 06:14:33;;;;;;;24.13;4.65;;;12.60;99.90;;;;;;5066809;28;20042;-81
2022/10/02 06:17:04;;;;;;;23.55;5.32;;;12.60;99.90;;;;;;5078850;27;20050;-81
2022/10/02 06:19:43;;;;;;;13.45;3.40;;;12.80;99.90;;;;;;5066798;28;20035;-81
2022/10/02 06:22:17;;;;;;;12.38;2.95;;;12.80;99.90;;;;;;5081810;28;20024;-80
2022/10/02 06:25:04;;;;;;;16.60;3.15;;;12.90;99.90;;;;;;5099346;28;20036;-81
2022/10/02 06:27:46;;;;;;;17.88;3.15;;;12.90;99.90;;;;;;5078546;28;20485;-80
2022/10/02 06:30:18;;;;;;;13.52;2.35;;;12.90;99.90;;;;;;5098162;28;20369;-80
2022/10/02 06:33:11;;;;;;;10.10;2.50;;;12.90;99.90;;;;;;5082164;28;20482;-81
2022/10/02 06:36:03;;;;;;;15.43;2.78;;;12.90;99.90;;;;;;5063087;28;20038;-80
2022/10/02 06:38:38;;;;;;;10.93;2.10;;;12.90;99.90;;;;;;5097909;28;20040;-81
2022/10/02 06:41:14;;;;;;;16.58;2.92;;;12.90;99.90;;;;;;5065239;28;20028;-80
2022/10/02 06:44:15;;;;;;;9.77;2.08;;;12.90;99.90;;;;;;5097853;28;20048;-81
2022/10/02 06:47:00;;;;;;;10.80;2.55;;;12.90;99.90;;;;;;5068672;28;20036;-81
2022/10/02 06:49:49;;;;;;;10.98;2.20;;;13.00;99.90;;;;;;5081216;28;20038;-81
2022/10/02 06:52:43;;;;;;;7.43;1.52;;;13.00;99.90;;;;;;5078801;28;20086;-80
2022/10/02 06:55:37;;;;;;;9.85;1.88;;;13.00;99.90;;;;;;5065246;28;20039;-78
2022/10/02 06:58:24;;;;;;;8.23;1.38;;;13.00;99.90;;;;;;5078499;28;20034;-79
2022/10/02 07:01:30;;;;;;;14.80;2.13;;;13.00;99.90;;;;;;5078880;28;20035;-78
2022/10/02 07:04:16;;;;;;;11.23;1.65;;;13.00;99.90;;;;;;5061422;28;20790;-78
2022/10/02 07:06:57;;;;;;;8.27;1.65;;;13.10;99.90;;;;;;5078695;28;20035;-78
2022/10/02 07:10:08;;;;;;;11.90;2.67;;;13.10;99.90;;;;;;5077979;28;20474;-78
2022/10/02 07:12:49;;;;;;;9.82;1.70;;;13.20;99.90;;;;;;5026366;28;20406;-78
2022/10/02 07:15:27;;;;;;;12.73;2.60;;;13.20;99.90;;;;;;5097242;27;20478;-78
2022/10/02 07:18:02;;;;;;;11.70;1.90;;;13.30;99.90;;;;;;5059456;28;20038;-78
2022/10/02 07:21:09;;;;;;;7.75;1.52;;;13.40;99.90;;;;;;5065126;28;20048;-79
2022/10/02 07:23:50;;;;;;;8.75;1.77;;;13.50;99.90;;;;;;5023466;28;20546;-80
2022/10/02 07:26:48;;;;;;;16.80;2.67;;;13.60;99.90;;;;;;5073766;28;20479;-79
2022/10/02 07:29:32;;;;;;;12.27;2.30;;;13.70;99.90;;;;;;5097081;28;20595;-79
2022/10/02 07:32:24;;;;;;;9.93;1.88;;;13.80;99.90;;;;;;5081779;28;20045;-80
2022/10/02 07:35:20;;;;;;;12.32;1.73;;;13.90;99.90;;;;;;5081236;28;20065;-79
2022/10/02 07:38:03;;;;;;;11.75;2.58;;;13.90;99.90;;;;;;5080775;28;20040;-79
2022/10/02 07:40:52;;;;;;;10.52;2.15;;;14.10;99.90;;;;;;5081744;28;20046;-79
2022/10/02 07:43:53;;;;;;;7.10;1.70;;;14.20;99.90;;;;;;5080643;28;20063;-79
2022/10/02 07:46:36;;;;;;;13.50;2.17;;;14.20;99.90;;;;;;5078248;28;20043;-79
2022/10/02 07:49:02;;;;;;;13.38;2.20;;;14.30;99.90;;;;;;5094566;28;20125;-78
2022/10/02 07:51:49;;;;;;;10.07;3.03;;;14.20;99.90;;;;;;5095403;28;20046;-78
2022/10/02 07:54:21;;;;;;;7.90;2.28;;;14.30;99.90;;;;;;5049693;28;20035;-79
2022/10/02 07:56:48;;;;;;;9.15;1.98;;;14.30;99.90;;;;;;5079722;28;20507;-79
2022/10/02 07:59:16;;;;;;;8.20;1.92;;;14.30;99.90;;;;;;5080946;28;20576;-79
2022/10/02 08:01:44;;;;;;;10.48;1.70;;;14.30;99.90;;;;;;5100230;28;20024;-79
2022/10/02 08:04:20;;;;;;;11.02;1.80;;;14.40;99.90;;;;;;5100350;28;20035;-79
2022/10/02 08:06:48;;;;;;;12.45;2.03;;;14.40;99.90;;;;;;5079199;28;20062;-79
2022/10/02 08:09:37;;;;;;;7.90;1.52;;;14.50;99.90;;;;;;5062625;28;20044;-79
2022/10/02 08:12:15;;;;;;;11.70;2.13;;;14.50;99.90;;;;;;5082150;28;20047;-78
2022/10/02 08:14:45;;;;;;;12.60;2.15;;;14.50;99.90;;;;;;5080209;28;20412;-79
2022/10/02 08:17:36;;;;;;;7.10;1.45;;;14.50;99.90;;;;;;5080282;28;20023;-79
2022/10/02 08:20:33;;;;;;;13.50;2.28;;;14.60;99.90;;;;;;5099205;28;20047;-79
2022/10/02 08:23:05;;;;;;;4.40;1.08;;;14.60;99.90;;;;;;5082061;28;20047;-80
2022/10/02 08:25:46;;;;;;;7.85;1.60;;;14.80;99.90;;;;;;5082043;28;20058;-79
2022/10/02 08:28:45;;;;;;;8.05;1.00;;;14.90;99.90;;;;;;5096550;28;20042;-79
2022/10/02 08:31:13;;;;;;;9.80;1.85;;;15.10;99.90;;;;;;5041409;28;20043;-79
2022/10/02 08:33:39;;;;;;;9.63;1.85;;;15.20;99.90;;;;;;5081199;28;20043;-79
2022/10/02 08:36:43;;;;;;;7.97;1.17;;;15.20;99.90;;;;;;5082114;28;20052;-79
2022/10/02 08:39:25;;;;;;;10.38;1.75;;;15.30;99.90;;;;;;5099045;28;20047;-79
2022/10/02 08:42:12;;;;;;;11.30;1.60;;;15.30;99.90;;;;;;5084908;28;20035;-79
2022/10/02 08:44:41;;;;;;;15.40;1.60;;;15.40;99.90;;;;;;5099755;28;20051;-79
2022/10/02 08:47:39;;;;;;;8.45;1.02;;;15.50;99.90;;;;;;5079915;28;20043;-79
2022/10/02 08:50:32;;;;;;;7.80;1.08;;;15.50;99.90;;;;;;5054703;28;20036;-78
2022/10/02 08:53:17;;;;;;;9.20;1.02;;;15.60;99.90;;;;;;5082219;28;20616;-78
2022/10/02 08:56:22;;;;;;;12.27;1.30;;;15.60;99.90;;;;;;5081245;28;20035;-79
2022/10/02 08:59:13;;;;;;;13.43;1.52;;;15.60;99.90;;;;;;5057965;28;20434;-79
2022/10/02 09:01:41;;;;;;;11.02;1.60;;;15.70;99.90;;;;;;5099061;28;20042;-78
2022/10/02 09:04:39;;;;;;;10.05;1.20;;;15.80;99.90;;;;;;5073585;28;20024;-78
2022/10/02 09:07:24;;;;;;;18.83;2.55;;;15.90;99.90;;;;;;5079871;28;20036;-78
2022/10/02 09:10:18;;;;;;;13.15;1.30;;;16.00;99.90;;;;;;5080833;28;20476;-78
2022/10/02 09:13:02;;;;;;;7.85;1.00;;;16.10;99.90;;;;;;5079781;28;20348;-79
2022/10/02 09:16:04;;;;;;;9.82;1.00;;;16.10;99.90;;;;;;5100126;28;20047;-79
2022/10/02 09:18:55;;;;;;;7.28;0.73;;;16.20;99.90;;;;;;5023543;28;20043;-78
2022/10/02 09:21:53;;;;;;;7.65;1.05;;;16.30;99.90;;;;;;5082061;28;20048;-79
2022/10/02 09:24:31;;;;;;;11.52;1.45;;;16.30;99.90;;;;;;5084484;28;20032;-79
2022/10/02 09:27:17;;;;;;;12.63;1.58;;;16.40;99.90;;;;;;5083388;28;20043;-78
2022/10/02 09:29:59;;;;;;;11.38;1.27;;;16.40;99.90;;;;;;5067164;28;20032;-79
2022/10/02 09:32:44;;;;;;;;;;;16.50;99.90;;;;;;5089230;28;20588;-80
2022/10/02 09:35:39;;;;;;;11.35;1.13;;;16.60;99.90;;;;;;5084656;28;19911;-80
2022/10/02 09:38:28;;;;;;;13.50;1.40;;;16.70;99.90;;;;;;5065601;28;20114;-79
2022/10/02 09:41:12;;;;;;;8.20;1.25;;;16.80;99.90;;;;;;5084809;28;20061;-79
2022/10/02 09:44:02;;;;;;;10.13;1.17;;;16.80;99.90;;;;;;5064282;28;20397;-79
2022/10/02 09:46:51;;;;;;;12.88;1.30;;;17.00;99.90;;;;;;5075350;28;20040;-80
2022/10/02 09:49:51;;;;;;;12.18;1.40;;;17.00;99.90;;;;;;5068683;28;20497;-80
2022/10/02 09:52:40;;;;;;;6.85;0.98;;;17.00;99.90;;;;;;5041377;28;20048;-79
2022/10/02 09:55:35;;;;;;;13.00;1.58;;;17.00;99.90;;;;;;5068840;28;20036;-78
2022/10/02 09:58:11;;;;;;;7.63;0.90;;;17.00;99.90;;;;;;5082476;28;20844;-79
2022/10/02 10:00:45;;;;;;;10.00;1.02;;;17.10;99.90;;;;;;5103168;28;20027;-79
2022/10/02 10:03:38;;;;;;;12.13;1.63;;;17.30;99.90;;;;;;5084540;28;20031;-79
2022/10/02 10:06:05;;;;;;;12.88;1.13;;;17.30;99.90;;;;;;5102808;28;20028;-79
2022/10/02 10:09:09;;;;;;;9.10;1.23;;;17.50;99.90;;;;;;5080183;28;20032;-79
2022/10/02 10:12:12;;;;;;;8.00;1.25;;;17.70;99.90;;;;;;5103776;28;20405;-79
2022/10/02 10:14:54;;;;;;;6.13;0.80;;;17.90;99.90;;;;;;5103607;28;20040;-78
2022/10/02 10:17:41;;;;;;;10.38;1.17;;;18.20;99.90;;;;;;5065328;28;20039;-78
2022/10/02 10:20:11;;;;;;;11.70;1.42;;;18.30;99.90;;;;;;5076800;28;20042;-78
2022/10/02 10:22:48;;;;;;;11.07;0.93;;;18.40;99.90;;;;;;5103148;28;20036;-79
2022/10/02 10:25:29;;;;;;;9.10;1.30;;;18.50;99.90;;;;;;5100432;28;20034;-78
2022/10/02 10:28:33;;;;;;;7.75;1.15;;;18.50;99.90;;;;;;5081607;28;20502;-78
2022/10/02 10:31:36;;;;;;;9.45;1.08;;;18.40;99.90;;;;;;5082852;28;20568;-78
2022/10/02 10:34:08;;;;;;;;;;;18.30;99.90;;;;;;5102415;28;20067;-77
2022/10/02 10:39:35;;;;;;;7.35;1.00;;;18.10;99.90;;;;;;5083462;28;20051;-77
2022/10/02 10:42:39;;;;;;;9.10;1.15;;;18.40;99.90;;;;;;5101946;28;20043;-77
2022/10/02 10:45:35;;;;;;;4.68;0.70;;;18.80;99.90;;;;;;5102339;28;20417;-77
2022/10/02 10:48:02;;;;;;;7.50;1.10;;;19.00;99.90;;;;;;5099714;28;20043;-76
2022/10/02 10:50:53;;;;;;;4.95;0.68;;;19.10;99.90;;;;;;5102439;28;20493;-78
2022/10/02 10:53:47;;;;;;;6.90;0.85;;;19.10;99.90;;;;;;5066893;28;20044;-77
2022/10/02 10:56:38;;;;;;;5.22;0.63;;;19.20;99.90;;;;;;5053189;28;20058;-77
2022/10/02 10:59:32;;;;;;;6.68;1.00;;;19.40;99.90;;;;;;5065477;28;20043;-77
2022/10/02 11:02:04;;;;;;;9.30;0.80;;;19.70;99.90;;;;;;5102242;28;20039;-77
2022/10/02 11:05:00;;;;;;;5.85;0.70;;;19.60;99.90;;;;;;5070788;28;20043;-76
2022/10/02 11:07:36;;;;;;;10.00;0.75;;;19.40;99.90;;;;;;5081407;28;20050;-77
2022/10/02 11:10:37;;;;;;;7.72;0.98;;;19.30;99.90;;;;;;5102209;28;20035;-78
2022/10/02 11:13:17;;;;;;;5.25;0.70;;;19.00;99.90;;;;;;5101835;28;20044;-77
2022/10/02 11:16:12;;;;;;;5.32;0.68;;;18.80;99.90;;;;;;5101488;28;20039;-77
2022/10/02 11:18:58;;;;;;;4.13;0.82;;;18.70;99.90;;;;;;5081641;28;20493;-78
2022/10/02 11:21:42;;;;;;;4.57;0.85;;;18.60;99.90;;;;;;5101908;28;20046;-77
2022/10/02 11:24:29;;;;;;;3.95;0.90;;;18.70;99.90;;;;;;5069535;28;20020;-77
2022/10/02 11:26:58;;;;;;;6.32;0.95;;;18.70;99.90;;;;;;5081063;28;20062;-77
2022/10/02 11:29:33;;;;;;;6.20;0.63;;;18.90;99.90;;;;;;5082714;28;20051;-77
2022/10/02 11:32:44;;;;;;;6.25;0.95;;;19.30;99.90;;;;;;5099808;28;20393;-77
2022/10/02 11:35:22;;;;;;;4.95;0.70;;;19.60;99.90;;;;;;5082978;28;21262;-77
2022/10/02 11:38:21;;;;;;;3.35;0.57;;;19.70;99.90;;;;;;5099222;28;20071;-77
2022/10/02 11:41:03;;;;;;;5.60;0.70;;;19.70;99.90;;;;;;5101233;28;20047;-77
2022/10/02 11:43:42;;;;;;;;;;;19.50;99.90;;;;;;5083090;28;20059;-77
2022/10/02 11:46:35;;;;;;;4.90;0.65;;;19.30;99.90;;;;;;5101522;28;19916;-77
2022/10/02 11:49:42;;;;;;;5.38;0.63;;;19.10;99.90;;;;;;5099840;28;20040;-77
2022/10/02 11:52:41;;;;;;;7.88;0.93;;;19.00;99.90;;;;;;5101719;28;20031;-77
2022/10/02 11:55:32;;;;;;;5.22;0.68;;;18.90;99.90;;;;;;5060970;28;20034;-77
2022/10/02 11:58:07;;;;;;;5.97;0.70;;;18.90;99.90;;;;;;5082448;28;20040;-77
2022/10/02 12:00:37;;;;;;;7.20;0.65;;;19.10;99.90;;;;;;5082561;28;20043;-77
2022/10/02 12:03:23;;;;;;;6.40;0.90;;;19.20;99.90;;;;;;5100278;28;20028;-77
2022/10/02 12:06:02;;;;;;;6.28;0.70;;;19.30;99.90;;;;;;5081044;28;20028;-78
2022/10/02 12:08:55;;;;;;;4.97;0.80;;;19.50;99.90;;;;;;5098411;28;20039;-78
2022/10/02 12:11:41;;;;;;;4.82;0.60;;;19.60;99.90;;;;;;5063596;28;20379;-78
2022/10/02 12:14:23;;;;;;;10.05;0.70;;;19.40;99.90;;;;;;5081706;28;20034;-79
2022/10/02 12:17:34;;;;;;;3.10;0.50;;;19.20;99.90;;;;;;5067997;28;20038;-78
2022/10/02 12:27:08;;;;;;;9.70;1.30;;;19.40;99.90;;;;;;5100371;28;20481;-79
2022/10/02 12:29:45;;;;;;;5.03;0.60;;;20.10;99.90;;;;;;5006453;28;20240;-79
2022/10/02 12:32:28;;;;;;;6.65;0.88;;;20.90;99.90;;;;;;5080871;28;20037;-79
2022/10/02 12:35:19;;;;;;;7.15;0.80;;;22.00;99.90;;;;;;5081621;28;21127;-78
2022/10/02 12:38:00;;;;;;;4.00;0.70;;;23.20;99.90;;;;;;5079029;28;20036;-79
2022/10/02 12:40:32;;;;;;;7.28;1.13;;;24.00;99.90;;;;;;5081148;28;20044;-78
2022/10/02 12:43:02;;;;;;;;;;;24.60;99.90;;;;;;5098901;28;21596;-78
2022/10/02 12:45:31;;;;;;;5.63;0.70;;;25.00;99.90;;;;;;5080437;28;19920;-79
2022/10/02 12:48:37;;;;;;;6.72;1.02;;;25.10;98.90;;;;;;5052407;28;20032;-79
2022/10/02 12:51:22;;;;;;;4.45;0.60;;;25.10;96.80;;;;;;5080385;28;20055;-78
2022/10/02 12:54:07;;;;;;;7.38;0.98;;;25.10;96.50;;;;;;5099091;28;20027;-78
2022/10/02 12:56:36;;;;;;;5.63;0.80;;;25.30;95.50;;;;;;5104249;28;20035;-77
2022/10/02 12:59:28;;;;;;;3.72;0.70;;;24.90;94.30;;;;;;5083748;28;20044;-78
2022/10/02 13:02:11;;;;;;;5.57;0.73;;;25.00;94.40;;;;;;5103138;28;20051;-77
2022/10/02 13:05:11;;;;;;;7.78;0.88;;;25.30;92.80;;;;;;5085993;28;20393;-76
2022/10/02 13:07:43;;;;;;;4.60;0.60;;;25.60;92.40;;;;;;5102536;28;21456;-76
2022/10/02 13:10:15;;;;;;;;;;;25.60;92.20;;;;;;5085927;28;20028;-76
2022/10/02 13:12:50;;;;;;;4.90;0.80;;;24.90;92.30;;;;;;5060887;28;19926;-77
2022/10/02 13:15:25;;;;;;;5.50;0.85;;;23.80;92.50;;;;;;5099225;27;20032;-77
2022/10/02 13:18:12;;;;;;;5.22;1.10;;;22.80;93.30;;;;;;5097231;28;20521;-77
2022/10/02 13:20:46;;;;;;;5.13;0.90;;;22.00;94.20;;;;;;5097922;27;20036;-77
2022/10/02 13:23:30;;;;;;;7.50;0.98;;;21.40;95.10;;;;;;5067320;28;20035;-77
2022/10/02 13:26:14;;;;;;;4.35;0.70;;;21.00;95.80;;;;;;5067648;28;20036;-77
2022/10/02 13:29:02;;;;;;;3.80;0.90;;;20.60;96.50;;;;;;5101651;28;20382;-77
2022/10/02 13:31:55;;;;;;;6.38;1.02;;;20.40;97.10;;;;;;5103516;28;20040;-77
2022/10/02 13:34:28;;;;;;;5.80;0.82;;;20.30;97.60;;;;;;5071535;28;20369;-76
2022/10/02 13:37:10;;;;;;;8.50;0.93;;;20.20;97.80;;;;;;5100843;28;20458;-77
2022/10/02 13:40:09;;;;;;;7.05;0.80;;;20.10;97.70;;;;;;5103479;28;20042;-76
2022/10/02 13:42:47;;;;;;;8.43;1.10;;;19.90;97.80;;;;;;5103154;28;20429;-77
2022/10/02 13:45:44;;;;;;;5.68;1.25;;;19.70;98.00;;;;;;5045869;28;20053;-77
2022/10/02 13:48:41;;;;;;;5.28;0.80;;;19.50;98.30;;;;;;5059326;28;20037;-77
2022/10/02 13:51:46;;;;;;;6.20;0.80;;;19.30;98.50;;;;;;5045592;28;20094;-77
2022/10/02 13:54:16;;;;;;;6.72;0.70;;;19.30;99.00;;;;;;5061037;28;20044;-77
2022/10/02 13:57:16;;;;;;;6.28;0.60;;;19.30;99.10;;;;;;5059380;28;20025;-76
2022/10/02 13:59:53;;;;;;;7.20;0.77;;;19.20;99.00;;;;;;5058626;28;20036;-76
2022/10/02 14:02:48;;;;;;;5.90;0.80;;;19.20;99.10;;;;;;5045508;28;20032;-76
2022/10/02 14:05:40;;;;;;;7.88;1.05;;;19.20;99.20;;;;;;5060504;28;20036;-76
2022/10/02 14:08:51;;;;;;;8.15;0.63;;;19.30;99.40;;;;;;5059689;28;20348;-76
2022/10/02 14:11:46;;;;;;;4.72;0.55;;;19.30;99.00;;;;;;5046156;28;20037;-76
2022/10/02 14:14:27;;;;;;;5.45;0.80;;;19.20;99.00;;;;;;4992247;28;20053;-76